sensor_id;sensor_type;location;lat;lon;timestamp;temperature;humidity
75430;DHT22;64127;51.488;5.462;2023-05-10T00:01:05;14.80;99.90
75430;DHT22;64127;51.488;5.462;2023-05-10T00:03:37;14.80;99.90
75430;DHT22;64127;51.488;5.462;2023-05-10T00:06:10;14.80;99.90
75430;DHT22;64127;51.488;5.462;2023-05-10T00:08:42;14.80;99.90
75430;DHT22;64127;51.488;5.462;2023-05-10T00:11:14;14.80;99.90
75430;DHT22;64127;51.488;5.462;2023-05-10T00:13:46;14.80;99.90
75430;DHT22;64127;51.488;5.462;2023-05-10T00:16:18;14.80;99.90
75430;DHT22;64127;51.488;5.462;2023-05-10T00:18:50;14.80;99.90
75430;DHT22;64127;51.488;5.462;2023-05-10T00:21:22;14.80;99.90
75430;DHT22;64127;51.488;5.462;2023-05-10T00:23:54;14.80;99.90
75430;DHT22;64127;51.488;5.462;2023-05-10T00:26:26;14.80;99.90
75430;DHT22;64127;51.488;5.462;2023-05-10T00:28:58;14.80;99.90
75430;DHT22;64127;51.488;5.462;2023-05-10T00:31:31;14.80;99.90
75430;DHT22;64127;51.488;5.462;2023-05-10T00:34:03;14.80;99.90
75430;DHT22;64127;51.488;5.462;2023-05-10T00:36:35;14.80;99.90
75430;DHT22;64127;51.488;5.462;2023-05-10T00:39:07;14.80;99.90
75430;DHT22;64127;51.488;5.462;2023-05-10T00:41:39;14.70;99.90
75430;DHT22;64127;51.488;5.462;2023-05-10T00:44:12;14.80;99.90
75430;DHT22;64127;51.488;5.462;2023-05-10T00:46:44;14.70;99.90
75430;DHT22;64127;51.488;5.462;2023-05-10T00:49:17;14.70;99.90
75430;DHT22;64127;51.488;5.462;2023-05-10T00:51:49;14.70;99.90
75430;DHT22;64127;51.488;5.462;2023-05-10T00:54:21;14.70;99.90
75430;DHT22;64127;51.488;5.462;2023-05-10T00:56:53;14.70;99.90
75430;DHT22;64127;51.488;5.462;2023-05-10T00:59:25;14.70;99.90
75430;DHT22;64127;51.488;5.462;2023-05-10T01:01:58;14.70;99.90
75430;DHT22;64127;51.488;5.462;2023-05-10T01:04:30;14.70;99.90
75430;DHT22;64127;51.488;5.462;2023-05-10T01:07:02;14.70;99.90
75430;DHT22;64127;51.488;5.462;2023-05-10T01:09:34;14.70;99.90
75430;DHT22;64127;51.488;5.462;2023-05-10T01:12:06;14.70;99.90
75430;DHT22;64127;51.488;5.462;2023-05-10T01:14:39;14.70;99.90
75430;DHT22;64127;51.488;5.462;2023-05-10T01:17:12;14.70;99.90
75430;DHT22;64127;51.488;5.462;2023-05-10T01:19:45;14.70;99.90
75430;DHT22;64127;51.488;5.462;2023-05-10T01:22:42;14.70;99.90
75430;DHT22;64127;51.488;5.462;2023-05-10T01:29:04;14.70;99.90
75430;DHT22;64127;51.488;5.462;2023-05-10T01:36:51;14.60;99.90
75430;DHT22;64127;51.488;5.462;2023-05-10T01:39:29;14.60;99.90
75430;DHT22;64127;51.488;5.462;2023-05-10T01:43:16;14.60;99.90
75430;DHT22;64127;51.488;5.462;2023-05-10T01:48:32;14.60;99.90
75430;DHT22;64127;51.488;5.462;2023-05-10T01:51:06;14.70;99.90
75430;DHT22;64127;51.488;5.462;2023-05-10T01:53:40;14.70;99.90
75430;DHT22;64127;51.488;5.462;2023-05-10T01:56:14;14.70;99.90
75430;DHT22;64127;51.488;5.462;2023-05-10T01:58:48;14.70;99.90
75430;DHT22;64127;51.488;5.462;2023-05-10T02:01:24;14.70;99.90
75430;DHT22;64127;51.488;5.462;2023-05-10T02:03:58;14.70;99.90
75430;DHT22;64127;51.488;5.462;2023-05-10T02:06:32;14.60;99.90
75430;DHT22;64127;51.488;5.462;2023-05-10T02:09:06;14.70;99.90
75430;DHT22;64127;51.488;5.462;2023-05-10T02:11:41;14.70;99.90
75430;DHT22;64127;51.488;5.462;2023-05-10T02:14:15;14.70;99.90
75430;DHT22;64127;51.488;5.462;2023-05-10T02:16:50;14.60;99.90
75430;DHT22;64127;51.488;5.462;2023-05-10T02:19:26;14.60;99.90
75430;DHT22;64127;51.488;5.462;2023-05-10T02:22:01;14.60;99.90
75430;DHT22;64127;51.488;5.462;2023-05-10T02:24:36;14.60;99.90
75430;DHT22;64127;51.488;5.462;2023-05-10T02:27:10;14.60;99.90
75430;DHT22;64127;51.488;5.462;2023-05-10T02:29:44;14.60;99.90
75430;DHT22;64127;51.488;5.462;2023-05-10T02:32:17;14.60;99.90
75430;DHT22;64127;51.488;5.462;2023-05-10T02:34:51;14.60;99.90
75430;DHT22;64127;51.488;5.462;2023-05-10T02:37:25;14.60;99.90
75430;DHT22;64127;51.488;5.462;2023-05-10T02:39:59;14.60;99.90
75430;DHT22;64127;51.488;5.462;2023-05-10T02:42:35;14.60;99.90
75430;DHT22;64127;51.488;5.462;2023-05-10T02:45:12;14.60;99.90
75430;DHT22;64127;51.488;5.462;2023-05-10T02:47:47;14.60;99.90
75430;DHT22;64127;51.488;5.462;2023-05-10T02:50:20;14.50;99.90
75430;DHT22;64127;51.488;5.462;2023-05-10T02:52:59;14.50;99.90
75430;DHT22;64127;51.488;5.462;2023-05-10T02:55:37;14.50;99.90
75430;DHT22;64127;51.488;5.462;2023-05-10T02:58:12;14.60;99.90
75430;DHT22;64127;51.488;5.462;2023-05-10T03:00:44;14.50;99.90
75430;DHT22;64127;51.488;5.462;2023-05-10T03:03:16;14.50;99.90
75430;DHT22;64127;51.488;5.462;2023-05-10T03:05:48;14.50;99.90
75430;DHT22;64127;51.488;5.462;2023-05-10T03:08:20;14.40;99.90
75430;DHT22;64127;51.488;5.462;2023-05-10T03:14:28;14.40;99.90
75430;DHT22;64127;51.488;5.462;2023-05-10T03:17:40;14.40;99.90
75430;DHT22;64127;51.488;5.462;2023-05-10T03:20:35;14.40;99.90
75430;DHT22;64127;51.488;5.462;2023-05-10T03:25:56;14.40;99.90
75430;DHT22;64127;51.488;5.462;2023-05-10T03:28:30;14.40;99.90
75430;DHT22;64127;51.488;5.462;2023-05-10T03:31:04;14.40;99.90
75430;DHT22;64127;51.488;5.462;2023-05-10T03:33:49;14.40;99.90
75430;DHT22;64127;51.488;5.462;2023-05-10T03:36:21;14.30;99.90
75430;DHT22;64127;51.488;5.462;2023-05-10T03:38:53;14.30;99.90
75430;DHT22;64127;51.488;5.462;2023-05-10T03:41:25;14.30;99.90
75430;DHT22;64127;51.488;5.462;2023-05-10T03:43:57;14.30;99.90
75430;DHT22;64127;51.488;5.462;2023-05-10T03:46:29;14.30;99.90
75430;DHT22;64127;51.488;5.462;2023-05-10T03:49:01;14.30;99.90
75430;DHT22;64127;51.488;5.462;2023-05-10T03:51:34;14.30;99.90
75430;DHT22;64127;51.488;5.462;2023-05-10T03:54:06;14.30;99.90
75430;DHT22;64127;51.488;5.462;2023-05-10T03:56:38;14.30;99.90
75430;DHT22;64127;51.488;5.462;2023-05-10T03:59:09;14.30;99.90
75430;DHT22;64127;51.488;5.462;2023-05-10T04:01:41;14.30;99.90
75430;DHT22;64127;51.488;5.462;2023-05-10T04:04:13;14.30;99.90
75430;DHT22;64127;51.488;5.462;2023-05-10T04:06:46;14.30;99.90
75430;DHT22;64127;51.488;5.462;2023-05-10T04:09:18;14.20;99.90
75430;DHT22;64127;51.488;5.462;2023-05-10T04:11:50;14.30;99.90
75430;DHT22;64127;51.488;5.462;2023-05-10T04:14:22;14.30;99.90
75430;DHT22;64127;51.488;5.462;2023-05-10T04:16:54;14.30;99.90
75430;DHT22;64127;51.488;5.462;2023-05-10T04:19:30;14.30;99.90
75430;DHT22;64127;51.488;5.462;2023-05-10T04:22:03;14.30;99.90
75430;DHT22;64127;51.488;5.462;2023-05-10T04:24:35;14.30;99.90
75430;DHT22;64127;51.488;5.462;2023-05-10T04:27:07;14.30;99.90
75430;DHT22;64127;51.488;5.462;2023-05-10T04:29:39;14.20;99.90
75430;DHT22;64127;51.488;5.462;2023-05-10T04:32:11;14.30;99.90
75430;DHT22;64127;51.488;5.462;2023-05-10T04:34:43;14.30;99.90
75430;DHT22;64127;51.488;5.462;2023-05-10T04:37:15;14.30;99.90
75430;DHT22;64127;51.488;5.462;2023-05-10T04:39:47;14.20;99.90
75430;DHT22;64127;51.488;5.462;2023-05-10T04:42:19;14.20;99.90
75430;DHT22;64127;51.488;5.462;2023-05-10T04:44:51;14.20;99.90
75430;DHT22;64127;51.488;5.462;2023-05-10T04:47:23;14.20;99.90
75430;DHT22;64127;51.488;5.462;2023-05-10T04:49:55;14.20;99.90
75430;DHT22;64127;51.488;5.462;2023-05-10T04:52:27;14.20;99.90
75430;DHT22;64127;51.488;5.462;2023-05-10T04:54:59;14.20;99.90
75430;DHT22;64127;51.488;5.462;2023-05-10T04:57:31;14.20;99.90
75430;DHT22;64127;51.488;5.462;2023-05-10T05:00:04;14.20;99.90
75430;DHT22;64127;51.488;5.462;2023-05-10T05:02:36;14.20;99.90
75430;DHT22;64127;51.488;5.462;2023-05-10T05:05:08;14.20;99.90
75430;DHT22;64127;51.488;5.462;2023-05-10T05:07:40;14.20;99.90
75430;DHT22;64127;51.488;5.462;2023-05-10T05:10:12;14.10;99.90
75430;DHT22;64127;51.488;5.462;2023-05-10T05:12:44;14.10;99.90
75430;DHT22;64127;51.488;5.462;2023-05-10T05:15:16;14.20;99.90
75430;DHT22;64127;51.488;5.462;2023-05-10T05:17:48;14.20;99.90
75430;DHT22;64127;51.488;5.462;2023-05-10T05:20:20;14.20;99.90
75430;DHT22;64127;51.488;5.462;2023-05-10T05:22:52;14.20;99.90
75430;DHT22;64127;51.488;5.462;2023-05-10T05:25:24;14.20;99.90
75430;DHT22;64127;51.488;5.462;2023-05-10T05:27:56;14.20;99.90
75430;DHT22;64127;51.488;5.462;2023-05-10T05:30:28;14.30;99.90
75430;DHT22;64127;51.488;5.462;2023-05-10T05:33:00;14.30;99.90
75430;DHT22;64127;51.488;5.462;2023-05-10T05:35:33;14.30;99.90
75430;DHT22;64127;51.488;5.462;2023-05-10T05:38:05;14.30;99.90
75430;DHT22;64127;51.488;5.462;2023-05-10T05:40:37;14.30;99.90
75430;DHT22;64127;51.488;5.462;2023-05-10T05:43:09;14.30;99.90
75430;DHT22;64127;51.488;5.462;2023-05-10T05:45:41;14.30;99.90
75430;DHT22;64127;51.488;5.462;2023-05-10T05:48:13;14.30;99.90
75430;DHT22;64127;51.488;5.462;2023-05-10T05:50:45;14.30;99.90
75430;DHT22;64127;51.488;5.462;2023-05-10T05:53:18;14.20;99.90
75430;DHT22;64127;51.488;5.462;2023-05-10T05:55:57;14.20;99.90
75430;DHT22;64127;51.488;5.462;2023-05-10T05:58:30;14.20;99.90
75430;DHT22;64127;51.488;5.462;2023-05-10T06:01:02;14.20;99.90
75430;DHT22;64127;51.488;5.462;2023-05-10T06:03:34;14.30;99.90
75430;DHT22;64127;51.488;5.462;2023-05-10T06:06:06;14.30;99.90
75430;DHT22;64127;51.488;5.462;2023-05-10T06:08:38;14.40;99.90
75430;DHT22;64127;51.488;5.462;2023-05-10T06:11:10;14.40;99.90
75430;DHT22;64127;51.488;5.462;2023-05-10T06:13:42;14.40;99.90
75430;DHT22;64127;51.488;5.462;2023-05-10T06:16:14;14.40;99.90
75430;DHT22;64127;51.488;5.462;2023-05-10T06:18:46;14.40;99.90
75430;DHT22;64127;51.488;5.462;2023-05-10T06:21:18;14.40;99.90
75430;DHT22;64127;51.488;5.462;2023-05-10T06:23:50;14.40;99.90
75430;DHT22;64127;51.488;5.462;2023-05-10T06:26:22;14.40;99.90
75430;DHT22;64127;51.488;5.462;2023-05-10T06:28:54;14.40;99.90
75430;DHT22;64127;51.488;5.462;2023-05-10T06:31:26;14.40;99.90
75430;DHT22;64127;51.488;5.462;2023-05-10T06:33:58;14.40;99.90
75430;DHT22;64127;51.488;5.462;2023-05-10T06:36:30;14.40;99.90
75430;DHT22;64127;51.488;5.462;2023-05-10T06:39:02;14.50;99.90
75430;DHT22;64127;51.488;5.462;2023-05-10T06:41:34;14.50;99.90
75430;DHT22;64127;51.488;5.462;2023-05-10T06:44:06;14.60;99.90
75430;DHT22;64127;51.488;5.462;2023-05-10T06:46:38;14.60;99.90
75430;DHT22;64127;51.488;5.462;2023-05-10T06:49:10;14.60;99.90
75430;DHT22;64127;51.488;5.462;2023-05-10T06:51:42;14.60;99.90
75430;DHT22;64127;51.488;5.462;2023-05-10T06:54:14;14.60;99.90
75430;DHT22;64127;51.488;5.462;2023-05-10T06:56:46;14.60;99.90
75430;DHT22;64127;51.488;5.462;2023-05-10T06:59:18;14.60;99.90
75430;DHT22;64127;51.488;5.462;2023-05-10T07:01:51;14.60;99.90
75430;DHT22;64127;51.488;5.462;2023-05-10T07:04:23;14.70;99.90
75430;DHT22;64127;51.488;5.462;2023-05-10T07:06:55;14.70;99.90
75430;DHT22;64127;51.488;5.462;2023-05-10T07:09:27;14.60;99.90
75430;DHT22;64127;51.488;5.462;2023-05-10T07:11:59;14.60;99.90
75430;DHT22;64127;51.488;5.462;2023-05-10T07:14:33;14.60;99.90
75430;DHT22;64127;51.488;5.462;2023-05-10T07:17:05;14.70;99.90
75430;DHT22;64127;51.488;5.462;2023-05-10T07:19:37;14.60;99.90
75430;DHT22;64127;51.488;5.462;2023-05-10T07:22:09;14.70;99.90
75430;DHT22;64127;51.488;5.462;2023-05-10T07:24:41;14.60;99.90
75430;DHT22;64127;51.488;5.462;2023-05-10T07:27:13;14.70;99.90
75430;DHT22;64127;51.488;5.462;2023-05-10T07:29:45;14.70;99.90
75430;DHT22;64127;51.488;5.462;2023-05-10T07:32:17;14.70;99.90
75430;DHT22;64127;51.488;5.462;2023-05-10T07:34:49;14.70;99.90
75430;DHT22;64127;51.488;5.462;2023-05-10T07:37:21;14.70;99.90
75430;DHT22;64127;51.488;5.462;2023-05-10T07:39:53;14.70;99.90
75430;DHT22;64127;51.488;5.462;2023-05-10T07:42:24;14.70;99.90
75430;DHT22;64127;51.488;5.462;2023-05-10T07:44:56;14.70;99.90
75430;DHT22;64127;51.488;5.462;2023-05-10T07:47:29;14.60;99.90
75430;DHT22;64127;51.488;5.462;2023-05-10T07:50:01;14.60;99.90
75430;DHT22;64127;51.488;5.462;2023-05-10T07:52:33;14.60;99.90
75430;DHT22;64127;51.488;5.462;2023-05-10T07:55:05;14.50;99.90
75430;DHT22;64127;51.488;5.462;2023-05-10T07:57:38;14.50;99.90
75430;DHT22;64127;51.488;5.462;2023-05-10T08:00:12;14.50;99.90
75430;DHT22;64127;51.488;5.462;2023-05-10T08:02:48;14.50;99.90
75430;DHT22;64127;51.488;5.462;2023-05-10T08:05:20;14.50;99.90
75430;DHT22;64127;51.488;5.462;2023-05-10T08:07:52;14.50;99.90
75430;DHT22;64127;51.488;5.462;2023-05-10T08:10:24;14.50;99.90
75430;DHT22;64127;51.488;5.462;2023-05-10T08:12:57;14.50;99.90
75430;DHT22;64127;51.488;5.462;2023-05-10T08:15:30;14.60;99.90
75430;DHT22;64127;51.488;5.462;2023-05-10T08:18:02;14.50;99.90
75430;DHT22;64127;51.488;5.462;2023-05-10T08:20:34;14.50;99.90
75430;DHT22;64127;51.488;5.462;2023-05-10T08:23:06;14.60;99.90
75430;DHT22;64127;51.488;5.462;2023-05-10T08:25:38;14.60;99.90
75430;DHT22;64127;51.488;5.462;2023-05-10T08:28:10;14.60;99.90
75430;DHT22;64127;51.488;5.462;2023-05-10T08:30:42;14.60;99.90
75430;DHT22;64127;51.488;5.462;2023-05-10T08:33:14;14.60;99.90
75430;DHT22;64127;51.488;5.462;2023-05-10T08:35:46;14.60;99.90
75430;DHT22;64127;51.488;5.462;2023-05-10T08:38:18;14.70;99.90
75430;DHT22;64127;51.488;5.462;2023-05-10T08:40:52;14.70;99.90
75430;DHT22;64127;51.488;5.462;2023-05-10T08:43:28;14.70;99.90
75430;DHT22;64127;51.488;5.462;2023-05-10T08:46:01;14.80;99.90
75430;DHT22;64127;51.488;5.462;2023-05-10T08:48:35;14.80;99.90
75430;DHT22;64127;51.488;5.462;2023-05-10T08:51:08;14.90;99.90
75430;DHT22;64127;51.488;5.462;2023-05-10T08:53:43;15.00;99.90
75430;DHT22;64127;51.488;5.462;2023-05-10T08:56:16;15.10;99.90
75430;DHT22;64127;51.488;5.462;2023-05-10T08:58:49;15.10;99.90
75430;DHT22;64127;51.488;5.462;2023-05-10T09:01:22;15.20;99.90
75430;DHT22;64127;51.488;5.462;2023-05-10T09:03:55;15.20;99.90
75430;DHT22;64127;51.488;5.462;2023-05-10T09:06:27;15.30;99.90
75430;DHT22;64127;51.488;5.462;2023-05-10T09:09:00;15.50;99.90
75430;DHT22;64127;51.488;5.462;2023-05-10T09:11:33;15.70;99.90
75430;DHT22;64127;51.488;5.462;2023-05-10T09:14:05;15.90;99.90
75430;DHT22;64127;51.488;5.462;2023-05-10T09:16:38;16.10;99.90
75430;DHT22;64127;51.488;5.462;2023-05-10T09:19:10;16.20;99.90
75430;DHT22;64127;51.488;5.462;2023-05-10T09:21:43;16.10;99.90
75430;DHT22;64127;51.488;5.462;2023-05-10T09:24:15;16.10;99.90
75430;DHT22;64127;51.488;5.462;2023-05-10T09:26:48;16.00;99.90
75430;DHT22;64127;51.488;5.462;2023-05-10T09:29:20;16.00;99.90
75430;DHT22;64127;51.488;5.462;2023-05-10T09:31:52;15.90;99.90
75430;DHT22;64127;51.488;5.462;2023-05-10T09:34:31;16.00;99.90
75430;DHT22;64127;51.488;5.462;2023-05-10T09:37:04;16.00;99.90
75430;DHT22;64127;51.488;5.462;2023-05-10T09:39:37;16.10;99.90
75430;DHT22;64127;51.488;5.462;2023-05-10T09:42:09;16.20;99.90
75430;DHT22;64127;51.488;5.462;2023-05-10T09:44:41;16.20;99.90
75430;DHT22;64127;51.488;5.462;2023-05-10T09:47:18;16.20;99.90
75430;DHT22;64127;51.488;5.462;2023-05-10T09:49:53;16.30;99.90
75430;DHT22;64127;51.488;5.462;2023-05-10T09:52:30;16.20;99.90
75430;DHT22;64127;51.488;5.462;2023-05-10T09:55:19;16.20;99.90
75430;DHT22;64127;51.488;5.462;2023-05-10T09:58:00;16.20;99.90
75430;DHT22;64127;51.488;5.462;2023-05-10T10:00:38;16.20;99.90
75430;DHT22;64127;51.488;5.462;2023-05-10T10:03:22;16.20;99.90
75430;DHT22;64127;51.488;5.462;2023-05-10T10:05:55;16.30;99.90
75430;DHT22;64127;51.488;5.462;2023-05-10T10:08:28;16.20;99.90
75430;DHT22;64127;51.488;5.462;2023-05-10T10:11:00;16.20;99.90
75430;DHT22;64127;51.488;5.462;2023-05-10T10:13:33;16.20;99.90
75430;DHT22;64127;51.488;5.462;2023-05-10T10:16:05;16.10;99.90
75430;DHT22;64127;51.488;5.462;2023-05-10T10:18:38;16.10;99.90
75430;DHT22;64127;51.488;5.462;2023-05-10T10:21:12;16.00;99.90
75430;DHT22;64127;51.488;5.462;2023-05-10T10:23:46;16.00;99.90
75430;DHT22;64127;51.488;5.462;2023-05-10T10:26:18;16.10;99.90
75430;DHT22;64127;51.488;5.462;2023-05-10T10:29:14;16.10;99.90
75430;DHT22;64127;51.488;5.462;2023-05-10T10:31:53;16.20;99.90
75430;DHT22;64127;51.488;5.462;2023-05-10T10:34:32;16.40;99.90
75430;DHT22;64127;51.488;5.462;2023-05-10T10:37:05;16.50;99.90
75430;DHT22;64127;51.488;5.462;2023-05-10T10:39:38;16.60;99.90
75430;DHT22;64127;51.488;5.462;2023-05-10T10:42:10;16.60;99.90
75430;DHT22;64127;51.488;5.462;2023-05-10T10:44:42;16.70;99.90
75430;DHT22;64127;51.488;5.462;2023-05-10T10:52:36;17.10;99.90
75430;DHT22;64127;51.488;5.462;2023-05-10T10:55:10;17.20;99.90
75430;DHT22;64127;51.488;5.462;2023-05-10T10:57:55;17.10;99.90
75430;DHT22;64127;51.488;5.462;2023-05-10T11:00:37;17.00;99.90
75430;DHT22;64127;51.488;5.462;2023-05-10T11:03:12;16.90;99.90
75430;DHT22;64127;51.488;5.462;2023-05-10T11:05:50;16.90;99.90
75430;DHT22;64127;51.488;5.462;2023-05-10T11:11:04;16.70;99.90
75430;DHT22;64127;51.488;5.462;2023-05-10T11:13:45;16.60;99.90
75430;DHT22;64127;51.488;5.462;2023-05-10T11:16:23;16.50;99.90
75430;DHT22;64127;51.488;5.462;2023-05-10T11:18:58;16.60;99.90
75430;DHT22;64127;51.488;5.462;2023-05-10T11:21:49;16.60;99.90
75430;DHT22;64127;51.488;5.462;2023-05-10T11:24:25;16.70;99.90
75430;DHT22;64127;51.488;5.462;2023-05-10T11:26:59;16.80;99.90
75430;DHT22;64127;51.488;5.462;2023-05-10T11:29:32;17.00;99.90
75430;DHT22;64127;51.488;5.462;2023-05-10T11:32:05;17.20;99.90
75430;DHT22;64127;51.488;5.462;2023-05-10T11:34:39;17.20;99.90
75430;DHT22;64127;51.488;5.462;2023-05-10T11:37:11;17.30;99.90
75430;DHT22;64127;51.488;5.462;2023-05-10T11:39:46;17.30;99.90
75430;DHT22;64127;51.488;5.462;2023-05-10T11:42:21;17.30;99.90
75430;DHT22;64127;51.488;5.462;2023-05-10T11:44:53;17.40;99.90
75430;DHT22;64127;51.488;5.462;2023-05-10T11:47:25;17.50;99.90
75430;DHT22;64127;51.488;5.462;2023-05-10T11:49:57;17.50;99.90
75430;DHT22;64127;51.488;5.462;2023-05-10T11:52:29;17.50;99.90
75430;DHT22;64127;51.488;5.462;2023-05-10T11:55:07;17.50;99.90
75430;DHT22;64127;51.488;5.462;2023-05-10T11:57:40;17.50;99.90
75430;DHT22;64127;51.488;5.462;2023-05-10T12:00:13;17.40;99.90
75430;DHT22;64127;51.488;5.462;2023-05-10T12:02:47;17.20;99.90
75430;DHT22;64127;51.488;5.462;2023-05-10T12:05:20;17.00;99.90
75430;DHT22;64127;51.488;5.462;2023-05-10T12:07:52;16.70;99.90
75430;DHT22;64127;51.488;5.462;2023-05-10T12:10:26;16.30;99.90
75430;DHT22;64127;51.488;5.462;2023-05-10T12:12:58;16.20;99.90
75430;DHT22;64127;51.488;5.462;2023-05-10T12:15:30;16.00;99.90
75430;DHT22;64127;51.488;5.462;2023-05-10T12:18:02;15.90;99.90
75430;DHT22;64127;51.488;5.462;2023-05-10T12:20:34;15.80;99.90
75430;DHT22;64127;51.488;5.462;2023-05-10T12:23:09;15.80;99.90
75430;DHT22;64127;51.488;5.462;2023-05-10T12:25:41;15.90;99.90
75430;DHT22;64127;51.488;5.462;2023-05-10T12:28:13;16.00;99.90
75430;DHT22;64127;51.488;5.462;2023-05-10T12:30:45;16.10;99.90
75430;DHT22;64127;51.488;5.462;2023-05-10T12:33:17;16.20;99.90
75430;DHT22;64127;51.488;5.462;2023-05-10T12:35:54;16.30;99.90
75430;DHT22;64127;51.488;5.462;2023-05-10T12:38:33;16.40;99.90
75430;DHT22;64127;51.488;5.462;2023-05-10T12:41:12;16.40;99.90
75430;DHT22;64127;51.488;5.462;2023-05-10T12:43:45;16.50;99.90
75430;DHT22;64127;51.488;5.462;2023-05-10T12:46:17;16.60;99.90
75430;DHT22;64127;51.488;5.462;2023-05-10T12:48:50;16.50;99.90
75430;DHT22;64127;51.488;5.462;2023-05-10T12:51:39;16.50;99.90
75430;DHT22;64127;51.488;5.462;2023-05-10T12:54:11;16.50;99.90
75430;DHT22;64127;51.488;5.462;2023-05-10T12:56:43;16.40;99.90
75430;DHT22;64127;51.488;5.462;2023-05-10T12:59:15;16.30;99.90
75430;DHT22;64127;51.488;5.462;2023-05-10T13:01:47;16.30;99.90
75430;DHT22;64127;51.488;5.462;2023-05-10T13:04:19;16.20;99.90
75430;DHT22;64127;51.488;5.462;2023-05-10T13:06:51;16.20;99.90
75430;DHT22;64127;51.488;5.462;2023-05-10T13:09:23;16.20;99.90
75430;DHT22;64127;51.488;5.462;2023-05-10T13:11:56;16.20;99.90
75430;DHT22;64127;51.488;5.462;2023-05-10T13:14:29;16.20;99.90
75430;DHT22;64127;51.488;5.462;2023-05-10T13:17:02;16.20;99.90
75430;DHT22;64127;51.488;5.462;2023-05-10T13:19:34;16.30;99.90
75430;DHT22;64127;51.488;5.462;2023-05-10T13:22:06;16.30;99.90
75430;DHT22;64127;51.488;5.462;2023-05-10T13:24:38;16.30;99.90
75430;DHT22;64127;51.488;5.462;2023-05-10T13:27:10;16.30;99.90
75430;DHT22;64127;51.488;5.462;2023-05-10T13:29:42;16.40;99.90
75430;DHT22;64127;51.488;5.462;2023-05-10T13:32:16;16.40;99.90
75430;DHT22;64127;51.488;5.462;2023-05-10T13:34:48;16.50;99.90
75430;DHT22;64127;51.488;5.462;2023-05-10T13:37:20;16.60;99.90
75430;DHT22;64127;51.488;5.462;2023-05-10T13:39:52;16.60;99.90
75430;DHT22;64127;51.488;5.462;2023-05-10T13:42:24;16.60;99.90
75430;DHT22;64127;51.488;5.462;2023-05-10T13:44:57;16.60;99.90
75430;DHT22;64127;51.488;5.462;2023-05-10T13:47:29;16.50;99.90
75430;DHT22;64127;51.488;5.462;2023-05-10T13:50:01;16.50;99.90
75430;DHT22;64127;51.488;5.462;2023-05-10T13:52:33;16.30;99.90
75430;DHT22;64127;51.488;5.462;2023-05-10T13:55:05;16.20;99.90
75430;DHT22;64127;51.488;5.462;2023-05-10T13:57:37;16.20;99.90
75430;DHT22;64127;51.488;5.462;2023-05-10T14:00:10;16.10;99.90
75430;DHT22;64127;51.488;5.462;2023-05-10T14:02:42;16.00;99.90
75430;DHT22;64127;51.488;5.462;2023-05-10T14:05:14;16.00;99.90
75430;DHT22;64127;51.488;5.462;2023-05-10T14:07:50;15.80;99.90
75430;DHT22;64127;51.488;5.462;2023-05-10T14:10:22;15.70;99.90
75430;DHT22;64127;51.488;5.462;2023-05-10T14:12:54;15.60;99.90
75430;DHT22;64127;51.488;5.462;2023-05-10T14:15:26;15.50;99.90
75430;DHT22;64127;51.488;5.462;2023-05-10T14:17:58;15.50;99.90
75430;DHT22;64127;51.488;5.462;2023-05-10T14:20:30;15.50;99.90
75430;DHT22;64127;51.488;5.462;2023-05-10T14:23:03;15.40;99.90
75430;DHT22;64127;51.488;5.462;2023-05-10T14:25:35;15.40;99.90
75430;DHT22;64127;51.488;5.462;2023-05-10T14:28:07;15.40;99.90
75430;DHT22;64127;51.488;5.462;2023-05-10T14:30:39;15.40;99.90
75430;DHT22;64127;51.488;5.462;2023-05-10T14:33:11;15.40;99.90
75430;DHT22;64127;51.488;5.462;2023-05-10T14:35:44;15.40;99.90
75430;DHT22;64127;51.488;5.462;2023-05-10T14:38:16;15.40;99.90
75430;DHT22;64127;51.488;5.462;2023-05-10T14:40:48;15.50;99.90
75430;DHT22;64127;51.488;5.462;2023-05-10T14:43:20;15.50;99.90
75430;DHT22;64127;51.488;5.462;2023-05-10T14:45:52;15.50;99.90
75430;DHT22;64127;51.488;5.462;2023-05-10T14:48:24;15.60;99.90
75430;DHT22;64127;51.488;5.462;2023-05-10T14:50:56;15.60;99.90
75430;DHT22;64127;51.488;5.462;2023-05-10T14:53:28;15.60;99.90
75430;DHT22;64127;51.488;5.462;2023-05-10T14:56:00;15.70;99.90
75430;DHT22;64127;51.488;5.462;2023-05-10T14:58:35;15.70;99.90
75430;DHT22;64127;51.488;5.462;2023-05-10T15:01:07;15.80;99.90
75430;DHT22;64127;51.488;5.462;2023-05-10T15:03:39;15.80;99.90
75430;DHT22;64127;51.488;5.462;2023-05-10T15:06:14;15.80;99.90
75430;DHT22;64127;51.488;5.462;2023-05-10T15:08:49;15.80;99.90
75430;DHT22;64127;51.488;5.462;2023-05-10T15:11:21;15.70;99.90
75430;DHT22;64127;51.488;5.462;2023-05-10T15:13:53;15.70;99.90
75430;DHT22;64127;51.488;5.462;2023-05-10T15:16:25;15.70;99.90
75430;DHT22;64127;51.488;5.462;2023-05-10T15:18:58;15.70;99.90
75430;DHT22;64127;51.488;5.462;2023-05-10T15:21:30;15.70;99.90
75430;DHT22;64127;51.488;5.462;2023-05-10T15:24:07;15.70;99.90
75430;DHT22;64127;51.488;5.462;2023-05-10T15:26:39;15.70;99.90
75430;DHT22;64127;51.488;5.462;2023-05-10T15:29:11;15.60;99.90
75430;DHT22;64127;51.488;5.462;2023-05-10T15:31:43;15.70;99.90
75430;DHT22;64127;51.488;5.462;2023-05-10T15:34:16;15.70;99.90
75430;DHT22;64127;51.488;5.462;2023-05-10T15:36:48;15.70;99.90
75430;DHT22;64127;51.488;5.462;2023-05-10T15:39:20;15.70;99.90
75430;DHT22;64127;51.488;5.462;2023-05-10T15:41:52;15.70;99.90
75430;DHT22;64127;51.488;5.462;2023-05-10T15:44:24;15.70;99.90
75430;DHT22;64127;51.488;5.462;2023-05-10T15:46:56;15.60;99.90
75430;DHT22;64127;51.488;5.462;2023-05-10T15:49:28;15.70;99.90
75430;DHT22;64127;51.488;5.462;2023-05-10T15:52:00;15.70;99.90
75430;DHT22;64127;51.488;5.462;2023-05-10T15:54:32;15.70;99.90
75430;DHT22;64127;51.488;5.462;2023-05-10T15:57:04;15.70;99.90
75430;DHT22;64127;51.488;5.462;2023-05-10T15:59:36;15.70;99.90
75430;DHT22;64127;51.488;5.462;2023-05-10T16:02:08;15.70;99.90
75430;DHT22;64127;51.488;5.462;2023-05-10T16:04:41;15.70;99.90
75430;DHT22;64127;51.488;5.462;2023-05-10T16:07:15;15.70;99.90
75430;DHT22;64127;51.488;5.462;2023-05-10T16:09:47;15.60;99.90
75430;DHT22;64127;51.488;5.462;2023-05-10T16:12:20;15.50;99.90
75430;DHT22;64127;51.488;5.462;2023-05-10T16:14:52;15.50;99.90
75430;DHT22;64127;51.488;5.462;2023-05-10T16:17:24;15.50;99.90
75430;DHT22;64127;51.488;5.462;2023-05-10T16:19:56;15.40;99.90
75430;DHT22;64127;51.488;5.462;2023-05-10T16:22:28;15.40;99.90
75430;DHT22;64127;51.488;5.462;2023-05-10T16:25:00;15.40;99.90
75430;DHT22;64127;51.488;5.462;2023-05-10T16:27:32;15.40;99.90
75430;DHT22;64127;51.488;5.462;2023-05-10T16:30:05;15.30;99.90
75430;DHT22;64127;51.488;5.462;2023-05-10T16:32:37;15.30;99.90
75430;DHT22;64127;51.488;5.462;2023-05-10T16:35:09;15.30;99.90